createdAt,value
2023-01-06T00:00:35.625Z,100.00
2023-01-06T00:03:02.890Z,100.00
2023-01-06T00:05:29.764Z,100.00
2023-01-06T00:07:56.666Z,100.00
2023-01-06T00:10:23.841Z,100.00
2023-01-06T00:12:51.071Z,100.00
2023-01-06T00:15:18.674Z,100.00
2023-01-06T00:17:46.049Z,100.00
2023-01-06T00:20:13.429Z,100.00
2023-01-06T00:22:40.823Z,100.00
2023-01-06T00:25:10.233Z,100.00
2023-01-06T00:27:37.668Z,100.00
2023-01-06T00:30:05.652Z,100.00
2023-01-06T00:32:32.560Z,100.00
2023-01-06T00:34:59.231Z,100.00
2023-01-06T00:37:25.830Z,100.00
2023-01-06T00:39:52.465Z,100.00
2023-01-06T00:42:19.217Z,100.00
2023-01-06T00:44:45.846Z,100.00
2023-01-06T00:47:12.695Z,100.00
2023-01-06T00:49:39.731Z,100.00
2023-01-06T00:52:06.486Z,100.00
2023-01-06T00:54:33.178Z,100.00
2023-01-06T00:56:59.786Z,100.00
2023-01-06T00:59:26.905Z,100.00
2023-01-06T01:01:55.999Z,100.00
2023-01-06T01:04:24.108Z,100.00
2023-01-06T01:06:53.016Z,100.00
2023-01-06T01:09:24.118Z,100.00
2023-01-06T01:12:06.934Z,100.00
2023-01-06T01:14:33.836Z,100.00
2023-01-06T01:17:00.763Z,100.00
2023-01-06T01:19:28.348Z,100.00
2023-01-06T01:21:54.980Z,100.00
2023-01-06T01:24:21.944Z,100.00
2023-01-06T01:26:48.627Z,100.00
2023-01-06T01:29:17.018Z,100.00
2023-01-06T01:31:44.506Z,100.00
2023-01-06T01:34:12.937Z,100.00
2023-01-06T01:36:42.287Z,100.00
2023-01-06T01:39:10.587Z,100.00
2023-01-06T01:41:37.235Z,100.00
2023-01-06T01:44:34.408Z,100.00
2023-01-06T01:47:01.039Z,100.00
2023-01-06T01:49:32.401Z,100.00
2023-01-06T01:52:02.787Z,100.00
2023-01-06T01:54:36.074Z,100.00
2023-01-06T01:57:08.609Z,100.00
2023-01-06T01:59:37.551Z,100.00
2023-01-06T02:02:04.745Z,100.00
2023-01-06T02:04:34.553Z,100.00
2023-01-06T02:07:02.491Z,100.00
2023-01-06T02:09:39.334Z,100.00
2023-01-06T02:12:06.282Z,100.00
2023-01-06T02:14:32.869Z,100.00
2023-01-06T02:17:05.651Z,100.00
2023-01-06T02:19:48.591Z,100.00
2023-01-06T02:22:46.106Z,100.00
2023-01-06T02:25:43.521Z,100.00
2023-01-06T02:28:22.188Z,100.00
2023-01-06T02:31:08.638Z,100.00
2023-01-06T02:33:47.022Z,100.00
2023-01-06T02:36:33.466Z,100.00
2023-01-06T02:39:05.399Z,100.00
2023-01-06T02:41:41.666Z,100.00
2023-01-06T02:44:20.103Z,100.00
2023-01-06T02:47:10.443Z,100.00
2023-01-06T02:49:38.035Z,100.00
2023-01-06T02:52:16.751Z,100.00
2023-01-06T02:54:50.027Z,100.00
2023-01-06T02:57:44.079Z,100.00
2023-01-06T03:00:16.638Z,100.00
2023-01-06T03:02:49.386Z,100.00
2023-01-06T03:05:17.508Z,100.00
2023-01-06T03:07:46.580Z,100.00
2023-01-06T03:10:16.780Z,100.00
2023-01-06T03:12:51.271Z,100.00
2023-01-06T03:15:17.992Z,100.00
2023-01-06T03:17:45.115Z,100.00
2023-01-06T03:20:13.572Z,100.00
2023-01-06T03:22:41.459Z,100.00
2023-01-06T03:25:09.317Z,100.00
2023-01-06T03:27:36.004Z,100.00
2023-01-06T03:30:09.628Z,100.00
2023-01-06T03:32:37.522Z,100.00
2023-01-06T03:35:20.424Z,100.00
2023-01-06T03:38:02.301Z,100.00
2023-01-06T03:40:42.207Z,100.00
2023-01-06T03:43:40.176Z,100.00
2023-01-06T03:46:27.763Z,100.00
2023-01-06T03:49:01.661Z,100.00
2023-01-06T03:51:39.616Z,100.00
2023-01-06T03:54:10.869Z,100.00
2023-01-06T03:57:04.720Z,100.00
2023-01-06T03:59:34.994Z,100.00
2023-01-06T04:02:02.871Z,100.00
2023-01-06T04:04:29.463Z,100.00
2023-01-06T04:06:56.108Z,100.00
2023-01-06T04:09:22.802Z,100.00
2023-01-06T04:12:04.773Z,100.00
2023-01-06T04:14:31.377Z,100.00
2023-01-06T04:16:57.951Z,100.00
2023-01-06T04:19:24.531Z,100.00
2023-01-06T04:21:51.103Z,100.00
2023-01-06T04:24:17.702Z,100.00
2023-01-06T04:26:44.309Z,100.00
2023-01-06T04:29:10.860Z,100.00
2023-01-06T04:31:37.445Z,100.00
2023-01-06T04:34:04.029Z,100.00
2023-01-06T04:36:31.582Z,100.00
2023-01-06T04:38:58.143Z,100.00
2023-01-06T04:41:24.930Z,100.00
2023-01-06T04:43:51.505Z,100.00
2023-01-06T04:46:18.058Z,100.00
2023-01-06T04:48:44.675Z,100.00
2023-01-06T04:51:11.765Z,100.00
2023-01-06T04:53:40.543Z,100.00
2023-01-06T04:56:09.732Z,100.00
2023-01-06T04:58:37.109Z,100.00
2023-01-06T05:01:06.577Z,100.00
2023-01-06T05:03:33.365Z,100.00
2023-01-06T05:06:02.696Z,100.00
2023-01-06T05:08:30.657Z,100.00
2023-01-06T05:11:14.218Z,100.00
2023-01-06T05:13:41.147Z,100.00
2023-01-06T05:16:09.719Z,100.00
2023-01-06T05:18:37.097Z,100.00
2023-01-06T05:21:03.773Z,100.00
2023-01-06T05:23:30.359Z,100.00
2023-01-06T05:25:56.999Z,100.00
2023-01-06T05:28:23.684Z,100.00
2023-01-06T05:30:50.297Z,100.00
2023-01-06T05:33:16.879Z,100.00
2023-01-06T05:35:43.478Z,100.00
2023-01-06T05:38:10.102Z,100.00
2023-01-06T05:40:36.691Z,100.00
2023-01-06T05:43:03.261Z,100.00
2023-01-06T05:45:29.966Z,100.00
2023-01-06T05:47:58.069Z,100.00
2023-01-06T05:50:24.689Z,100.00
2023-01-06T05:52:54.510Z,100.00
2023-01-06T05:55:24.328Z,100.00
2023-01-06T05:57:50.904Z,100.00
2023-01-06T06:00:17.676Z,100.00
2023-01-06T06:02:44.265Z,100.00
2023-01-06T06:05:10.869Z,100.00
2023-01-06T06:07:37.880Z,100.00
2023-01-06T06:10:05.424Z,100.00
2023-01-06T06:12:32.047Z,100.00
2023-01-06T06:14:58.651Z,100.00
2023-01-06T06:17:25.398Z,100.00
2023-01-06T06:19:52.011Z,100.00
2023-01-06T06:22:19.069Z,100.00
2023-01-06T06:24:45.706Z,100.00
2023-01-06T06:27:12.357Z,100.00
2023-01-06T06:29:38.972Z,100.00
2023-01-06T06:32:05.537Z,100.00
2023-01-06T06:34:32.206Z,100.00
2023-01-06T06:36:58.768Z,100.00
2023-01-06T06:39:25.431Z,100.00
2023-01-06T06:41:52.039Z,100.00
2023-01-06T06:44:18.652Z,100.00
2023-01-06T06:46:45.227Z,100.00
2023-01-06T06:49:11.876Z,100.00
2023-01-06T06:51:38.472Z,100.00
2023-01-06T06:54:05.152Z,100.00
2023-01-06T06:56:31.805Z,100.00
2023-01-06T06:58:58.457Z,100.00
2023-01-06T07:01:25.195Z,100.00
2023-01-06T07:03:51.905Z,100.00
2023-01-06T07:06:22.785Z,100.00
2023-01-06T07:08:49.857Z,100.00
2023-01-06T07:11:16.889Z,100.00
2023-01-06T07:13:43.731Z,100.00
2023-01-06T07:16:12.138Z,100.00
2023-01-06T07:18:39.278Z,100.00
2023-01-06T07:21:06.172Z,100.00
2023-01-06T07:23:33.194Z,100.00
2023-01-06T07:26:01.333Z,100.00
2023-01-06T07:28:29.536Z,100.00
2023-01-06T07:30:56.284Z,100.00
2023-01-06T07:33:24.490Z,100.00
2023-01-06T07:35:53.998Z,100.00
2023-01-06T07:38:21.042Z,100.00
2023-01-06T07:40:48.021Z,100.00
2023-01-06T07:43:14.859Z,100.00
2023-01-06T07:45:41.459Z,100.00
2023-01-06T07:48:09.506Z,100.00
2023-01-06T07:50:36.075Z,100.00
2023-01-06T07:53:03.336Z,100.00
2023-01-06T07:55:31.489Z,100.00
2023-01-06T07:57:58.904Z,100.00
2023-01-06T08:00:26.127Z,100.00
2023-01-06T08:02:53.031Z,100.00
2023-01-06T08:05:19.778Z,100.00
2023-01-06T08:07:46.344Z,100.00
2023-01-06T08:10:12.900Z,100.00
2023-01-06T08:12:39.606Z,100.00
2023-01-06T08:15:06.748Z,100.00
2023-01-06T08:17:33.358Z,100.00
2023-01-06T08:19:59.991Z,100.00
2023-01-06T08:22:26.650Z,100.00
2023-01-06T08:24:53.350Z,100.00
2023-01-06T08:27:20.749Z,100.00
2023-01-06T08:29:50.108Z,100.00
2023-01-06T08:32:17.136Z,100.00
2023-01-06T08:34:43.753Z,100.00
2023-01-06T08:37:10.409Z,100.00
2023-01-06T08:39:36.985Z,100.00
2023-01-06T08:42:03.787Z,100.00
2023-01-06T08:44:30.407Z,100.00
2023-01-06T08:46:57.188Z,100.00
2023-01-06T08:49:23.784Z,100.00
2023-01-06T08:51:50.374Z,100.00
2023-01-06T08:54:17.089Z,100.00
2023-01-06T08:56:44.726Z,100.00
2023-01-06T08:59:15.050Z,100.00
2023-01-06T09:01:42.475Z,100.00
2023-01-06T09:04:10.737Z,100.00
2023-01-06T09:06:38.448Z,100.00
2023-01-06T09:09:07.455Z,100.00
2023-01-06T09:11:34.306Z,100.00
2023-01-06T09:14:01.143Z,100.00
2023-01-06T09:16:27.782Z,100.00
2023-01-06T09:18:54.390Z,100.00
2023-01-06T09:21:23.158Z,100.00
2023-01-06T09:23:50.401Z,100.00
2023-01-06T09:26:18.430Z,100.00
2023-01-06T09:28:45.176Z,100.00
2023-01-06T09:31:12.273Z,100.00
2023-01-06T09:33:39.989Z,100.00
2023-01-06T09:36:07.650Z,100.00
2023-01-06T09:38:34.304Z,100.00
2023-01-06T09:41:31.427Z,100.00
2023-01-06T09:44:10.884Z,100.00
2023-01-06T09:46:40.639Z,100.00
2023-01-06T09:49:19.410Z,100.00
2023-01-06T09:51:46.097Z,100.00
2023-01-06T09:54:16.907Z,100.00
2023-01-06T09:56:53.621Z,100.00
2023-01-06T09:59:27.536Z,100.00
2023-01-06T10:01:55.826Z,100.00
2023-01-06T10:04:27.223Z,100.00
2023-01-06T10:07:20.011Z,100.00
2023-01-06T10:10:10.612Z,100.00
2023-01-06T10:13:03.729Z,100.00
2023-01-06T10:15:48.967Z,100.00
2023-01-06T10:18:26.162Z,99.66
2023-01-06T10:21:16.586Z,98.40
2023-01-06T10:24:11.781Z,96.79
2023-01-06T10:26:43.274Z,94.97
2023-01-06T10:29:18.484Z,93.30
2023-01-06T10:31:47.756Z,92.91
2023-01-06T10:34:21.554Z,91.49
2023-01-06T10:36:57.091Z,90.28
2023-01-06T10:39:27.380Z,89.16
2023-01-06T10:42:39.786Z,87.92
2023-01-06T10:45:11.124Z,86.82
2023-01-06T10:47:37.940Z,86.91
2023-01-06T10:50:05.361Z,84.99
2023-01-06T10:52:33.070Z,85.47
2023-01-06T10:55:04.746Z,85.29
2023-01-06T10:57:36.312Z,83.72
2023-01-06T11:00:12.695Z,84.99
2023-01-06T11:02:46.805Z,84.81
2023-01-06T11:05:16.307Z,84.43
2023-01-06T11:07:51.811Z,84.45
2023-01-06T11:10:27.412Z,85.17
2023-01-06T11:12:57.016Z,84.59
2023-01-06T11:15:29.411Z,84.20
2023-01-06T11:17:56.136Z,83.77
2023-01-06T11:20:22.672Z,83.96
2023-01-06T11:22:49.562Z,85.34
2023-01-06T11:25:30.392Z,85.36
2023-01-06T11:28:12.344Z,86.09
2023-01-06T11:30:52.835Z,85.73
2023-01-06T11:33:22.329Z,85.58
2023-01-06T11:35:50.022Z,85.03
2023-01-06T11:38:19.155Z,85.58
2023-01-06T11:40:48.959Z,86.67
2023-01-06T11:43:19.935Z,88.19
2023-01-06T11:45:53.674Z,88.01
2023-01-06T11:48:20.263Z,89.20
2023-01-06T11:50:57.062Z,89.30
2023-01-06T11:53:25.193Z,89.53
2023-01-06T11:55:57.934Z,90.88
2023-01-06T11:58:36.312Z,90.39
2023-01-06T12:01:38.041Z,91.72
2023-01-06T12:04:12.995Z,91.39
2023-01-06T12:06:42.996Z,91.85
2023-01-06T12:09:28.897Z,92.47
2023-01-06T12:11:59.393Z,92.61
2023-01-06T12:14:31.389Z,92.26
2023-01-06T12:17:04.712Z,92.62
2023-01-06T12:19:46.019Z,92.60
2023-01-06T12:22:23.967Z,93.35
2023-01-06T12:24:52.416Z,92.74
2023-01-06T12:27:30.223Z,93.83
2023-01-06T12:30:01.144Z,94.13
2023-01-06T12:32:36.433Z,94.64
2023-01-06T12:35:05.757Z,94.26
2023-01-06T12:37:33.317Z,94.40
2023-01-06T12:40:21.699Z,94.28
2023-01-06T12:43:18.842Z,93.53
2023-01-06T12:45:57.593Z,94.51
2023-01-06T12:48:25.590Z,94.17
2023-01-06T12:50:57.973Z,93.28
2023-01-06T12:53:28.723Z,94.54
2023-01-06T12:55:56.308Z,93.91
2023-01-06T12:58:31.179Z,92.34
2023-01-06T13:01:09.294Z,92.92
2023-01-06T13:03:35.953Z,94.01
2023-01-06T13:06:32.197Z,93.45
2023-01-06T13:09:15.008Z,93.27
2023-01-06T13:12:03.850Z,93.48
2023-01-06T13:14:59.577Z,92.99
2023-01-06T13:17:44.545Z,93.53
2023-01-06T13:20:31.919Z,92.04
2023-01-06T13:23:10.223Z,91.32
2023-01-06T13:26:04.256Z,91.35
2023-01-06T13:29:05.107Z,91.47
2023-01-06T13:31:48.126Z,91.52
2023-01-06T13:34:39.480Z,91.90
2023-01-06T13:37:34.794Z,92.82
2023-01-06T13:40:18.833Z,91.88
2023-01-06T13:42:53.565Z,91.13
2023-01-06T13:45:32.556Z,91.14
2023-01-06T13:48:00.966Z,88.73
2023-01-06T13:50:28.811Z,88.28
2023-01-06T13:52:56.205Z,87.37
2023-01-06T13:55:30.719Z,85.77
2023-01-06T13:58:35.439Z,84.22
2023-01-06T14:01:07.681Z,79.67
2023-01-06T14:03:35.477Z,76.36
2023-01-06T14:06:04.084Z,72.45
2023-01-06T14:08:36.507Z,71.20
2023-01-06T14:11:06.744Z,70.12
2023-01-06T14:13:41.441Z,68.80
2023-01-06T14:16:14.521Z,65.44
2023-01-06T14:18:45.630Z,63.78
2023-01-06T14:21:13.220Z,63.54
2023-01-06T14:23:50.904Z,61.41
2023-01-06T14:26:17.562Z,61.50
2023-01-06T14:28:44.178Z,63.08
2023-01-06T14:31:25.967Z,62.59
2023-01-06T14:33:57.445Z,63.98
2023-01-06T14:36:26.059Z,61.38
2023-01-06T14:39:01.131Z,64.14
2023-01-06T14:41:48.148Z,63.12
2023-01-06T14:44:18.476Z,63.66
2023-01-06T14:47:02.041Z,67.00
2023-01-06T14:49:44.531Z,68.54
2023-01-06T14:52:18.239Z,69.09
2023-01-06T14:54:47.469Z,70.90
2023-01-06T14:57:29.361Z,68.59
2023-01-06T15:00:12.282Z,69.40
2023-01-06T15:02:45.582Z,70.30
2023-01-06T15:05:30.412Z,72.64
2023-01-06T15:07:58.024Z,75.85
2023-01-06T15:10:26.947Z,78.85
2023-01-06T15:12:57.103Z,81.02
2023-01-06T15:15:30.771Z,83.03
2023-01-06T15:17:59.937Z,85.88
2023-01-06T15:20:39.308Z,89.30
2023-01-06T15:23:06.663Z,88.78
2023-01-06T15:25:37.770Z,88.78
2023-01-06T15:28:04.483Z,89.15
2023-01-06T15:30:34.925Z,90.98
2023-01-06T15:33:02.994Z,92.83
2023-01-06T15:35:31.736Z,95.43
2023-01-06T15:38:04.909Z,97.58
2023-01-06T15:40:32.302Z,98.14
2023-01-06T15:42:59.071Z,97.81
2023-01-06T15:45:32.353Z,98.38
2023-01-06T15:48:02.989Z,98.44
2023-01-06T15:50:31.891Z,99.40
2023-01-06T15:53:04.034Z,100.00
2023-01-06T15:55:34.533Z,100.00
2023-01-06T15:58:04.602Z,100.00
2023-01-06T16:00:41.679Z,100.00
2023-01-06T16:03:18.902Z,100.00
2023-01-06T16:05:50.433Z,100.00
2023-01-06T16:08:25.902Z,100.00
2023-01-06T16:11:46.938Z,100.00
2023-01-06T16:14:28.882Z,100.00
2023-01-06T16:17:10.778Z,100.00
2023-01-06T16:19:45.330Z,100.00
2023-01-06T16:22:26.410Z,100.00
2023-01-06T16:24:53.591Z,100.00
2023-01-06T16:27:25.777Z,100.00
2023-01-06T16:30:09.767Z,100.00
2023-01-06T16:32:40.694Z,100.00
2023-01-06T16:35:13.390Z,100.00
2023-01-06T16:37:40.022Z,100.00
2023-01-06T16:40:07.871Z,100.00
2023-01-06T16:42:41.022Z,100.00
2023-01-06T16:45:28.403Z,100.00
2023-01-06T16:47:55.808Z,100.00
2023-01-06T16:50:38.245Z,100.00
2023-01-06T16:53:21.231Z,100.00
2023-01-06T16:55:57.563Z,100.00
2023-01-06T16:58:26.589Z,100.00
2023-01-06T17:00:54.678Z,100.00
2023-01-06T17:03:24.341Z,100.00
2023-01-06T17:05:52.245Z,100.00
2023-01-06T17:08:27.600Z,100.00
2023-01-06T17:10:54.378Z,100.00
2023-01-06T17:13:36.547Z,100.00
2023-01-06T17:16:26.845Z,100.00
2023-01-06T17:18:56.308Z,100.00
2023-01-06T17:21:28.192Z,100.00
2023-01-06T17:24:02.511Z,100.00
2023-01-06T17:26:29.764Z,100.00
2023-01-06T17:28:58.259Z,100.00
2023-01-06T17:31:35.504Z,100.00
2023-01-06T17:34:12.355Z,100.00
2023-01-06T17:36:41.503Z,100.00
2023-01-06T17:39:25.722Z,100.00
2023-01-06T17:42:01.872Z,100.00
2023-01-06T17:44:35.978Z,100.00
2023-01-06T17:47:11.407Z,100.00
2023-01-06T17:49:38.061Z,100.00
2023-01-06T17:52:14.671Z,100.00
2023-01-06T17:54:56.681Z,100.00
2023-01-06T17:57:27.118Z,100.00
2023-01-06T17:59:57.578Z,100.00
2023-01-06T18:02:42.132Z,100.00
2023-01-06T18:05:30.595Z,100.00
2023-01-06T18:08:06.823Z,100.00
2023-01-06T18:10:35.977Z,100.00
2023-01-06T18:13:29.241Z,100.00
2023-01-06T18:15:58.818Z,100.00
2023-01-06T18:18:33.266Z,100.00
2023-01-06T18:21:29.516Z,100.00
2023-01-06T18:23:56.356Z,100.00
2023-01-06T18:26:37.726Z,100.00
2023-01-06T18:29:22.665Z,100.00
2023-01-06T18:31:51.227Z,100.00
2023-01-06T18:34:26.742Z,100.00
2023-01-06T18:36:55.814Z,100.00
2023-01-06T18:39:37.750Z,100.00
2023-01-06T18:42:19.557Z,100.00
2023-01-06T18:44:46.857Z,100.00
2023-01-06T18:47:20.072Z,100.00
2023-01-06T18:49:47.584Z,100.00
2023-01-06T18:52:36.802Z,100.00
2023-01-06T18:55:15.246Z,100.00
2023-01-06T18:57:45.894Z,100.00
2023-01-06T19:00:30.946Z,100.00
2023-01-06T19:03:14.495Z,100.00
2023-01-06T19:05:42.197Z,100.00
2023-01-06T19:08:21.714Z,100.00
2023-01-06T19:10:49.886Z,100.00
2023-01-06T19:13:24.579Z,100.00
2023-01-06T19:15:51.348Z,100.00
2023-01-06T19:18:19.791Z,100.00
2023-01-06T19:20:47.368Z,100.00
2023-01-06T19:23:18.556Z,100.00
2023-01-06T19:25:50.410Z,100.00
2023-01-06T19:28:22.057Z,100.00
2023-01-06T19:30:50.772Z,100.00
2023-01-06T19:33:35.427Z,100.00
2023-01-06T19:36:27.801Z,100.00
2023-01-06T19:38:54.668Z,100.00
2023-01-06T19:41:29.947Z,100.00
2023-01-06T19:44:08.229Z,100.00
2023-01-06T19:46:38.766Z,100.00
2023-01-06T19:49:20.801Z,100.00
2023-01-06T19:51:49.757Z,100.00
2023-01-06T19:54:25.192Z,100.00
2023-01-06T19:56:52.999Z,100.00
2023-01-06T19:59:29.316Z,100.00
2023-01-06T20:01:58.986Z,100.00
2023-01-06T20:04:27.137Z,100.00
2023-01-06T20:06:54.194Z,100.00
2023-01-06T20:09:21.949Z,100.00
2023-01-06T20:11:50.545Z,100.00
2023-01-06T20:14:18.219Z,100.00
2023-01-06T20:16:45.571Z,100.00
2023-01-06T20:19:13.202Z,100.00
2023-01-06T20:21:40.304Z,100.00
2023-01-06T20:24:08.054Z,100.00
2023-01-06T20:26:34.805Z,100.00
2023-01-06T20:29:02.445Z,100.00
2023-01-06T20:31:29.096Z,100.00
2023-01-06T20:33:55.834Z,100.00
2023-01-06T20:36:22.784Z,100.00
2023-01-06T20:38:49.430Z,100.00
2023-01-06T20:41:16.169Z,100.00
2023-01-06T20:43:42.798Z,100.00
2023-01-06T20:46:09.451Z,100.00
2023-01-06T20:48:36.228Z,100.00
2023-01-06T20:51:02.843Z,100.00
2023-01-06T20:53:29.417Z,100.00
2023-01-06T20:55:56.048Z,100.00
2023-01-06T20:58:22.674Z,100.00
2023-01-06T21:00:49.409Z,100.00
2023-01-06T21:03:16.310Z,100.00
2023-01-06T21:05:42.958Z,100.00
2023-01-06T21:08:09.566Z,100.00
2023-01-06T21:10:37.325Z,100.00
2023-01-06T21:13:04.182Z,100.00
2023-01-06T21:15:30.810Z,100.00
2023-01-06T21:17:57.431Z,100.00
2023-01-06T21:20:24.175Z,100.00
2023-01-06T21:23:03.779Z,100.00
2023-01-06T21:25:44.057Z,100.00
2023-01-06T21:28:30.762Z,100.00
2023-01-06T21:31:35.743Z,100.00
2023-01-06T21:34:42.788Z,100.00
2023-01-06T21:37:49.765Z,100.00
2023-01-06T21:40:49.886Z,100.00
2023-01-06T21:43:56.744Z,100.00
2023-01-06T21:47:04.775Z,100.00
2023-01-06T21:49:41.878Z,100.00
2023-01-06T21:52:10.941Z,100.00
2023-01-06T21:54:37.625Z,100.00
2023-01-06T21:57:04.620Z,100.00
2023-01-06T21:59:35.479Z,100.00
2023-01-06T22:02:06.064Z,100.00
2023-01-06T22:04:33.685Z,100.00
2023-01-06T22:07:04.180Z,100.00
2023-01-06T22:09:31.713Z,100.00
2023-01-06T22:12:00.312Z,100.00
2023-01-06T22:14:27.066Z,100.00
2023-01-06T22:16:54.775Z,100.00
2023-01-06T22:19:21.618Z,100.00
2023-01-06T22:21:48.244Z,100.00
2023-01-06T22:24:17.457Z,100.00
2023-01-06T22:26:44.058Z,100.00
2023-01-06T22:29:11.102Z,100.00
2023-01-06T22:31:37.698Z,100.00
2023-01-06T22:34:06.621Z,100.00
2023-01-06T22:36:33.241Z,100.00
2023-01-06T22:38:59.834Z,100.00
2023-01-06T22:41:26.490Z,100.00
2023-01-06T22:43:53.222Z,100.00
2023-01-06T22:46:20.506Z,100.00
2023-01-06T22:48:47.234Z,100.00
2023-01-06T22:51:14.028Z,100.00
2023-01-06T22:53:40.782Z,100.00
2023-01-06T22:56:09.953Z,100.00
2023-01-06T22:58:38.808Z,100.00
2023-01-06T23:01:06.871Z,100.00
2023-01-06T23:03:34.455Z,100.00
2023-01-06T23:06:07.769Z,100.00
2023-01-06T23:08:38.861Z,100.00
2023-01-06T23:11:10.255Z,100.00
2023-01-06T23:13:38.478Z,100.00
2023-01-06T23:16:08.574Z,100.00
2023-01-06T23:18:37.157Z,100.00
2023-01-06T23:21:06.828Z,100.00
2023-01-06T23:23:34.774Z,100.00
2023-01-06T23:26:03.620Z,100.00
2023-01-06T23:28:30.631Z,100.00
2023-01-06T23:31:02.462Z,100.00
2023-01-06T23:33:29.552Z,100.00
2023-01-06T23:36:00.433Z,100.00
2023-01-06T23:38:27.485Z,100.00
2023-01-06T23:40:59.962Z,100.00
2023-01-06T23:43:26.995Z,100.00
2023-01-06T23:45:59.978Z,100.00
2023-01-06T23:48:28.088Z,100.00
2023-01-06T23:50:54.710Z,100.00
2023-01-06T23:53:21.546Z,100.00
2023-01-06T23:55:58.631Z,100.00
2023-01-06T23:58:27.759Z,100.00
